Airfield :
LOGIN :

Register | Disclaimer

   EN    FR    IT 

 










Legend :    VFR   Marginal VFR   IFR   Intensive IFR   Very Intensive IFR
Visi :
Ceiling :
>= 8 km
>= 3000ft
5 to 8 km
1000 to 3000 ft
1500m to 5 km
500 to 1000 ft
800 to 1500m
200 to 500 ft
< 800m
< 200 ft
Symbols :   Thunderstorms  Fog  Heavy snow  Heavy precipitations  Wind > 20 kt
SIGMETs :     Misc.  Thunderstorms  Icing  Turbulence  Mountain Waves  Volcanic Ashes






- Airport Elevation : 659 ft
- IATA code : LGG


EBLG - Liège

CURRENT METAR :
  • 100450Z 23008KT CAVOK 01/00 Q1025 NOSIG

EXPIRED METARs :
  • 100420Z 25006KT CAVOK 02/01 Q1025 NOSIG
  • 100350Z 26006KT 9999 FEW030 02/01 Q1025 NOSIG
  • 100320Z 26007KT 9999 FEW030 02/02 Q1025 NOSIG
  • 100250Z 27006KT 9999 FEW030 02/01 Q1025 NOSIG
  • 100220Z 27007KT 9999 FEW030 02/01 Q1024 NOSIG

TAF TAF EBLG
Valid from the 10 at 00:00 until the 11 at 06:00 UTC


092300Z 1000/1106 28007KT 9999 FEW025 SCT040
PROB30
TEMPO 1004/1008 BKN006
BECMG 1009/1011 20011KT
BECMG 1017/1019 19016G27KT
BECMG 1102/1104 20013KT BKN014
PROB30
TEMPO 1104/1106 4500 RA BKN009



MET'MAP, your aeronautical weather chart ! - Copyright ORBIFLY December 2007 - Disclaimer

ORBIFLY MET'MAP TEAM :

Programming & Development : Alexandra Zaïnal
Concept & original design : Baudouin d'Aumeries
Assistance for programming : Marc-Olivier Méhu
Technical & hardware support : Manuel Goepfert

Contact : metmap@orbifly.com




SOURCES & CREDITS :

   NOAA